Time;durP1;ratioP1;P1;durP2;ratioP2;P2;SDS_P1;SDS_P2;PMS_P1;PMS_P2;Temp;Humidity;BMP_temperature;BMP_pressure;BME280_temperature;BME280_humidity;BME280_pressure;Samples;Min_cycle;Max_cycle;Signal;HPM_P1;HPM_P2
2022/12/31 00:00:26;;;;;;;;;0.25;0.00;;;;;;;;5105563;27;62719;-77
2022/12/31 00:02:51;;;;;;;;;1.00;0.00;;;;;;;;5104863;27;61906;-77
2022/12/31 00:05:17;;;;;;;;;0.00;0.00;;;;;;;;5104832;27;61822;-77
2022/12/31 00:07:42;;;;;;;;;0.00;0.00;;;;;;;;5103990;27;61731;-77
2022/12/31 00:10:07;;;;;;;;;0.00;0.00;;;;;;;;5105490;27;63154;-78
2022/12/31 00:12:33;;;;;;;;;3.75;0.00;;;;;;;;5104509;27;61963;-77
2022/12/31 00:14:58;;;;;;;;;0.00;0.00;;;;;;;;5105023;27;62171;-78
2022/12/31 00:17:23;;;;;;;;;0.00;0.00;;;;;;;;5106384;27;61870;-78
2022/12/31 00:19:48;;;;;;;;;1.00;0.00;;;;;;;;5103764;27;63805;-77
2022/12/31 00:22:14;;;;;;;;;1.25;0.00;;;;;;;;5104330;27;61713;-77
2022/12/31 00:24:39;;;;;;;;;0.00;0.00;;;;;;;;5106040;27;61702;-78
2022/12/31 00:27:04;;;;;;;;;2.00;0.00;;;;;;;;5106056;27;61811;-77
2022/12/31 00:29:29;;;;;;;;;0.00;0.00;;;;;;;;5102998;27;64838;-77
2022/12/31 00:31:55;;;;;;;;;0.75;0.75;;;;;;;;5106029;27;61760;-77
2022/12/31 00:34:20;;;;;;;;;0.00;0.00;;;;;;;;5105464;27;61872;-77
2022/12/31 00:36:45;;;;;;;;;0.00;0.00;;;;;;;;5105945;27;61734;-77
2022/12/31 00:39:11;;;;;;;;;0.50;0.50;;;;;;;;5103640;27;63840;-77
2022/12/31 00:41:36;;;;;;;;;1.00;0.00;;;;;;;;5104162;27;61749;-77
2022/12/31 00:44:02;;;;;;;;;1.33;1.00;;;;;;;;5105171;27;61732;-78
2022/12/31 00:46:27;;;;;;;;;0.00;0.00;;;;;;;;5105710;27;61947;-77
2022/12/31 00:48:52;;;;;;;;;1.00;1.00;;;;;;;;5104724;27;62986;-77
2022/12/31 00:51:19;;;;;;;;;0.67;0.00;;;;;;;;5105416;27;61804;-78
2022/12/31 00:53:44;;;;;;;;;0.67;0.00;;;;;;;;5105491;27;61936;-78
2022/12/31 00:56:11;;;;;;;;;0.00;0.00;;;;;;;;5105260;27;61683;-77
2022/12/31 00:58:36;;;;;;;;;0.00;0.00;;;;;;;;5104333;27;62803;-77
2022/12/31 01:01:28;;;;;;;;;2.00;0.67;;;;;;;;5105184;27;61952;-77
2022/12/31 01:03:55;;;;;;;;;0.00;0.00;;;;;;;;5101503;27;62111;-77
2022/12/31 01:06:20;;;;;;;;;0.33;0.00;;;;;;;;5103926;27;61842;-78
2022/12/31 01:08:49;;;;;;;;;2.67;0.00;;;;;;;;5102059;27;63739;-77
2022/12/31 01:11:18;;;;;;;;;0.33;0.00;;;;;;;;5105234;27;61788;-78
2022/12/31 01:13:57;;;;;;;;;0.00;0.00;;;;;;;;5104843;27;61891;-78
2022/12/31 01:16:24;;;;;;;;;0.00;0.00;;;;;;;;5105112;27;61923;-78
2022/12/31 01:18:49;;;;;;;;;0.00;0.00;;;;;;;;5104065;27;61821;-77
2022/12/31 01:21:14;;;;;;;;;0.00;0.00;;;;;;;;5103633;27;61830;-78
2022/12/31 01:23:40;;;;;;;;;0.00;0.00;;;;;;;;5104901;27;61814;-78
2022/12/31 01:26:06;;;;;;;;;1.00;0.00;;;;;;;;5103939;27;61818;-77
2022/12/31 01:28:31;;;;;;;;;3.00;0.00;;;;;;;;5102780;27;63816;-78
2022/12/31 01:30:57;;;;;;;;;0.00;0.00;;;;;;;;5104807;27;62067;-78
2022/12/31 01:33:22;;;;;;;;;0.25;0.00;;;;;;;;5104958;27;61979;-78
2022/12/31 01:35:48;;;;;;;;;0.00;0.00;;;;;;;;5104724;27;61851;-77
2022/12/31 01:38:13;;;;;;;;;1.00;0.00;;;;;;;;5104066;27;61856;-78
2022/12/31 01:40:39;;;;;;;;;1.75;0.00;;;;;;;;5104512;27;61913;-78
2022/12/31 01:43:12;;;;;;;;;1.00;0.00;;;;;;;;5104297;27;61888;-78
2022/12/31 01:45:40;;;;;;;;;0.50;0.00;;;;;;;;5104660;27;61753;-78
2022/12/31 01:48:09;;;;;;;;;0.00;0.00;;;;;;;;5103823;27;61796;-78
2022/12/31 01:50:35;;;;;;;;;1.00;0.00;;;;;;;;5102864;27;61851;-78
2022/12/31 01:53:02;;;;;;;;;1.00;0.00;;;;;;;;5104555;27;61976;-78
2022/12/31 01:55:30;;;;;;;;;1.00;0.00;;;;;;;;5103944;27;61959;-78
2022/12/31 01:58:04;;;;;;;;;0.00;0.00;;;;;;;;5103530;27;61800;-78
2022/12/31 02:00:30;;;;;;;;;0.00;0.00;;;;;;;;5104262;27;61801;-78
2022/12/31 02:02:55;;;;;;;;;0.00;0.00;;;;;;;;5102977;27;61784;-78
2022/12/31 02:05:36;;;;;;;;;0.00;0.00;;;;;;;;5104279;27;61934;-78
2022/12/31 02:08:04;;;;;;;;;1.00;0.00;;;;;;;;5102623;27;61748;-78
2022/12/31 02:10:30;;;;;;;;;1.00;0.00;;;;;;;;5102458;27;61871;-78
2022/12/31 02:12:55;;;;;;;;;1.00;0.00;;;;;;;;5103745;27;62057;-78
2022/12/31 02:15:24;;;;;;;;;1.33;0.00;;;;;;;;5104195;27;62154;-78
2022/12/31 02:18:17;;;;;;;;;0.00;0.00;;;;;;;;5102190;27;62996;-78
2022/12/31 02:21:01;;;;;;;;;0.67;0.00;;;;;;;;5102451;27;61887;-78
2022/12/31 02:23:26;;;;;;;;;0.00;0.00;;;;;;;;5102531;27;61828;-77
2022/12/31 02:26:15;;;;;;;;;0.00;0.00;;;;;;;;5103889;27;61696;-78
2022/12/31 02:29:06;;;;;;;;;0.00;0.00;;;;;;;;5079858;28;61872;-78
2022/12/31 02:31:35;;;;;;;;;1.67;0.00;;;;;;;;5020119;28;61869;-78
2022/12/31 02:34:03;;;;;;;;;1.00;0.00;;;;;;;;5020344;28;62100;-78
2022/12/31 02:36:31;;;;;;;;;2.00;0.00;;;;;;;;5020309;28;61802;-78
2022/12/31 02:38:57;;;;;;;;;0.00;0.00;;;;;;;;5019341;28;63721;-78
2022/12/31 02:44:18;;;;;;;;;0.00;0.00;;;;;;;;5019915;28;61802;-78
2022/12/31 02:46:48;;;;;;;;;0.00;0.00;;;;;;;;5020434;28;61751;-78
2022/12/31 02:49:22;;;;;;;;;0.00;0.00;;;;;;;;5019601;28;62061;-78
2022/12/31 02:52:20;;;;;;;;;1.67;0.00;;;;;;;;5003664;28;61913;-78
2022/12/31 02:55:03;;;;;;;;;0.00;0.00;;;;;;;;4960614;28;62022;-78
2022/12/31 02:57:37;;;;;;;;;0.00;0.00;;;;;;;;4961394;28;61835;-78
2022/12/31 03:02:51;;;;;;;;;5.00;0.00;;;;;;;;4960966;28;62091;-78
2022/12/31 03:05:18;;;;;;;;;0.00;0.00;;;;;;;;4967159;28;62163;-78
2022/12/31 03:07:44;;;;;;;;;0.00;0.00;;;;;;;;4993230;28;62099;-78
2022/12/31 03:10:09;;;;;;;;;2.00;1.00;;;;;;;;5039318;28;61944;-78
2022/12/31 03:12:47;;;;;;;;;2.00;0.00;;;;;;;;5056635;28;61848;-78
2022/12/31 03:15:19;;;;;;;;;2.00;0.00;;;;;;;;5040013;28;62046;-78
2022/12/31 03:17:49;;;;;;;;;1.00;0.00;;;;;;;;5056690;28;62028;-78
2022/12/31 03:22:57;;;;;;;;;1.00;0.00;;;;;;;;5039650;28;61969;-78
2022/12/31 03:25:32;;;;;;;;;0.00;0.00;;;;;;;;5039691;28;61946;-78
2022/12/31 03:27:58;;;;;;;;;0.00;0.00;;;;;;;;5039937;28;62027;-78
2022/12/31 03:30:24;;;;;;;;;0.00;0.00;;;;;;;;5070551;27;61917;-78
2022/12/31 03:32:49;;;;;;;;;1.00;0.00;;;;;;;;5102932;27;61848;-78
2022/12/31 03:35:16;;;;;;;;;2.67;0.00;;;;;;;;5103180;27;61804;-78
2022/12/31 03:37:41;;;;;;;;;0.00;0.00;;;;;;;;5103035;27;61678;-78
2022/12/31 03:40:07;;;;;;;;;0.00;0.00;;;;;;;;5100913;27;64730;-78
2022/12/31 03:42:33;;;;;;;;;0.00;0.00;;;;;;;;5101621;27;61933;-78
2022/12/31 03:44:58;;;;;;;;;0.00;0.00;;;;;;;;5102527;27;62076;-78
2022/12/31 03:47:24;;;;;;;;;0.00;0.00;;;;;;;;5103239;27;62171;-78
2022/12/31 03:49:49;;;;;;;;;0.00;0.00;;;;;;;;5104489;27;61873;-78
2022/12/31 03:52:14;;;;;;;;;1.00;0.00;;;;;;;;5106226;27;61710;-78
2022/12/31 03:54:39;;;;;;;;;1.00;0.00;;;;;;;;5106175;27;61864;-78
2022/12/31 03:57:05;;;;;;;;;0.00;0.00;;;;;;;;5105272;27;62128;-78
2022/12/31 03:59:30;;;;;;;;;0.67;0.67;;;;;;;;5105274;27;62858;-78
2022/12/31 04:01:55;;;;;;;;;0.33;0.33;;;;;;;;5106445;27;61772;-78
2022/12/31 04:04:21;;;;;;;;;0.33;0.33;;;;;;;;5106115;27;61615;-78
2022/12/31 04:06:46;;;;;;;;;0.00;0.00;;;;;;;;5106095;27;62047;-78
2022/12/31 04:09:12;;;;;;;;;0.67;0.00;;;;;;;;5105016;27;61828;-78
2022/12/31 04:11:37;;;;;;;;;0.00;0.00;;;;;;;;5105986;27;61958;-78
2022/12/31 04:14:02;;;;;;;;;0.00;0.00;;;;;;;;5105916;27;61894;-78
2022/12/31 04:16:27;;;;;;;;;2.00;1.00;;;;;;;;5106194;27;61799;-78
2022/12/31 04:18:53;;;;;;;;;0.33;0.00;;;;;;;;5104984;27;62615;-78
2022/12/31 04:21:18;;;;;;;;;0.00;0.00;;;;;;;;5104509;27;61865;-78
2022/12/31 04:23:43;;;;;;;;;1.00;1.00;;;;;;;;5105868;27;61855;-78
2022/12/31 04:26:08;;;;;;;;;1.00;0.00;;;;;;;;5104602;27;62070;-78
2022/12/31 04:28:33;;;;;;;;;0.00;0.00;;;;;;;;5105076;27;61798;-78
2022/12/31 04:30:59;;;;;;;;;1.00;1.00;;;;;;;;5105780;27;61796;-78
2022/12/31 04:33:24;;;;;;;;;0.50;0.00;;;;;;;;5105828;27;62010;-77
2022/12/31 04:35:49;;;;;;;;;1.33;1.00;;;;;;;;5105624;27;61817;-78
2022/12/31 04:38:14;;;;;;;;;0.67;0.00;;;;;;;;5105194;27;61844;-78
2022/12/31 04:41:15;;;;;;;;;0.00;0.00;;;;;;;;5105674;27;61879;-78
2022/12/31 04:43:25;;;;;;;;;0.00;0.00;;;;;;;;5105305;27;61912;-78
2022/12/31 04:45:50;;;;;;;;;0.00;0.00;;;;;;;;5105638;27;61951;-78
2022/12/31 04:48:15;;;;;;;;;1.75;1.00;;;;;;;;5104930;27;61824;-78
2022/12/31 04:50:41;;;;;;;;;0.00;0.00;;;;;;;;5104934;27;61762;-78
2022/12/31 04:53:06;;;;;;;;;0.00;0.00;;;;;;;;5105641;27;61841;-78
2022/12/31 04:55:31;;;;;;;;;0.67;0.67;;;;;;;;5105375;27;61850;-78
2022/12/31 04:57:56;;;;;;;;;3.00;1.00;;;;;;;;5104435;27;61660;-78
2022/12/31 05:00:22;;;;;;;;;0.00;0.00;;;;;;;;5104080;27;61881;-78
2022/12/31 05:02:47;;;;;;;;;1.00;0.00;;;;;;;;5103707;27;61886;-77
2022/12/31 05:05:12;;;;;;;;;0.75;0.75;;;;;;;;5105335;27;61719;-78
2022/12/31 05:07:37;;;;;;;;;0.00;0.00;;;;;;;;5103585;27;61944;-78
2022/12/31 05:10:03;;;;;;;;;0.00;0.00;;;;;;;;5103711;27;61797;-78
2022/12/31 05:12:28;;;;;;;;;0.00;0.00;;;;;;;;5105359;27;61693;-78
2022/12/31 05:14:53;;;;;;;;;0.00;0.00;;;;;;;;5103438;27;61984;-78
2022/12/31 05:17:19;;;;;;;;;0.00;0.00;;;;;;;;5103090;27;63510;-78
2022/12/31 05:19:45;;;;;;;;;3.50;0.75;;;;;;;;5104359;27;61689;-77
2022/12/31 05:22:28;;;;;;;;;1.00;1.00;;;;;;;;5105060;27;62266;-78
2022/12/31 05:24:53;;;;;;;;;0.33;0.33;;;;;;;;5104981;27;61724;-78
2022/12/31 05:27:19;;;;;;;;;0.00;0.00;;;;;;;;5102807;27;65097;-78
2022/12/31 05:29:44;;;;;;;;;0.00;0.00;;;;;;;;5104569;27;61916;-77
2022/12/31 05:32:09;;;;;;;;;1.33;0.00;;;;;;;;5104987;27;61885;-78
2022/12/31 05:34:35;;;;;;;;;4.00;1.00;;;;;;;;5103135;27;61759;-78
2022/12/31 05:37:00;;;;;;;;;1.25;1.00;;;;;;;;5102504;27;63520;-78
2022/12/31 05:39:25;;;;;;;;;0.00;0.00;;;;;;;;5104830;27;61839;-78
2022/12/31 05:41:50;;;;;;;;;0.00;0.00;;;;;;;;5103361;27;61745;-78
2022/12/31 05:44:16;;;;;;;;;4.67;0.00;;;;;;;;5104576;27;61711;-78
2022/12/31 05:46:41;;;;;;;;;2.00;0.00;;;;;;;;5103825;27;62627;-78
2022/12/31 05:49:06;;;;;;;;;0.00;0.00;;;;;;;;5104053;27;61751;-77
2022/12/31 05:51:31;;;;;;;;;2.00;0.00;;;;;;;;5104629;27;61635;-78
2022/12/31 05:53:57;;;;;;;;;1.00;0.00;;;;;;;;5104726;27;61824;-78
2022/12/31 05:56:22;;;;;;;;;0.00;0.00;;;;;;;;5103646;27;63008;-78
2022/12/31 05:58:47;;;;;;;;;1.00;0.00;;;;;;;;5104060;27;61798;-78
2022/12/31 06:01:12;;;;;;;;;1.00;0.25;;;;;;;;5104588;27;61684;-76
2022/12/31 06:03:38;;;;;;;;;0.75;0.00;;;;;;;;5102882;27;62318;-78
2022/12/31 06:06:03;;;;;;;;;1.00;1.00;;;;;;;;5103446;27;62760;-78
2022/12/31 06:08:28;;;;;;;;;0.00;0.00;;;;;;;;5103416;27;61868;-78
2022/12/31 06:10:54;;;;;;;;;0.25;0.00;;;;;;;;5104026;27;61817;-78
2022/12/31 06:13:19;;;;;;;;;1.00;1.00;;;;;;;;5103439;27;61883;-78
2022/12/31 06:15:44;;;;;;;;;0.67;0.67;;;;;;;;5103439;27;62773;-78
2022/12/31 06:18:09;;;;;;;;;0.25;0.00;;;;;;;;5103984;27;61827;-78
2022/12/31 06:20:35;;;;;;;;;1.25;0.00;;;;;;;;5103975;27;61933;-78
2022/12/31 06:23:00;;;;;;;;;1.67;0.00;;;;;;;;5102866;27;61817;-78
2022/12/31 06:25:26;;;;;;;;;0.00;0.00;;;;;;;;5101820;27;63452;-78
2022/12/31 06:27:51;;;;;;;;;1.00;1.00;;;;;;;;5102632;27;61876;-78
2022/12/31 06:30:16;;;;;;;;;1.00;0.00;;;;;;;;5102508;27;62092;-78
2022/12/31 06:32:42;;;;;;;;;2.33;0.33;;;;;;;;5103847;27;62170;-78
2022/12/31 06:35:07;;;;;;;;;0.00;0.00;;;;;;;;5102992;27;61973;-78
2022/12/31 06:37:32;;;;;;;;;1.00;1.00;;;;;;;;5102325;27;61972;-78
2022/12/31 06:39:58;;;;;;;;;0.00;0.00;;;;;;;;5103896;27;61852;-78
2022/12/31 06:42:23;;;;;;;;;0.00;0.00;;;;;;;;5102754;27;61756;-78
2022/12/31 06:44:48;;;;;;;;;0.67;0.67;;;;;;;;5102465;27;62718;-75
2022/12/31 06:47:14;;;;;;;;;0.67;0.00;;;;;;;;5102304;27;61723;-76
2022/12/31 06:49:39;;;;;;;;;2.00;0.67;;;;;;;;5103329;27;61822;-76
2022/12/31 06:52:05;;;;;;;;;0.33;0.33;;;;;;;;5104868;27;62069;-78
2022/12/31 06:54:30;;;;;;;;;2.00;0.67;;;;;;;;5102927;27;63167;-78
2022/12/31 06:56:56;;;;;;;;;0.33;0.00;;;;;;;;5103354;27;62056;-78
2022/12/31 06:59:23;;;;;;;;;2.00;1.00;;;;;;;;5103079;27;61801;-77
2022/12/31 07:02:10;;;;;;;;;2.00;1.00;;;;;;;;5103884;27;61955;-78
2022/12/31 07:04:55;;;;;;;;;1.33;0.00;;;;;;;;5102738;27;61687;-77
2022/12/31 07:07:23;;;;;;;;;1.67;1.00;;;;;;;;5102346;27;61956;-77
2022/12/31 07:10:00;;;;;;;;;1.00;1.00;;;;;;;;5103369;27;61677;-78
2022/12/31 07:12:41;;;;;;;;;0.67;0.33;;;;;;;;5102253;27;61755;-78
2022/12/31 07:15:13;;;;;;;;;1.00;1.00;;;;;;;;5101752;27;62890;-75
2022/12/31 07:18:04;;;;;;;;;2.00;1.00;;;;;;;;5103254;27;61802;-78
2022/12/31 07:20:30;;;;;;;;;2.00;0.50;;;;;;;;5079643;28;62135;-78
2022/12/31 07:22:55;;;;;;;;;1.00;1.00;;;;;;;;5080242;28;61753;-78
2022/12/31 07:25:22;;;;;;;;;1.00;1.00;;;;;;;;5082515;28;61905;-78
2022/12/31 07:28:06;;;;;;;;;1.00;1.00;;;;;;;;5084083;27;61940;-78
2022/12/31 07:30:47;;;;;;;;;2.00;0.67;;;;;;;;5083333;28;62068;-78
2022/12/31 07:33:15;;;;;;;;;3.00;1.00;;;;;;;;5083854;28;61935;-78
2022/12/31 07:35:47;;;;;;;;;1.00;1.00;;;;;;;;5082829;27;62921;-78
2022/12/31 07:38:12;;;;;;;;;2.00;0.00;;;;;;;;5083386;28;61761;-78
2022/12/31 07:40:58;;;;;;;;;3.33;2.00;;;;;;;;5066475;28;62035;-78
2022/12/31 07:43:32;;;;;;;;;4.00;1.00;;;;;;;;5066106;28;61932;-78
2022/12/31 07:46:03;;;;;;;;;2.00;1.00;;;;;;;;5082803;28;62971;-78
2022/12/31 07:48:29;;;;;;;;;3.33;1.67;;;;;;;;5083427;28;61781;-77
2022/12/31 07:50:55;;;;;;;;;1.00;1.00;;;;;;;;5066079;28;61976;-78
2022/12/31 07:53:21;;;;;;;;;2.00;1.00;;;;;;;;5083562;28;62136;-78
2022/12/31 07:55:51;;;;;;;;;3.50;0.00;;;;;;;;5082488;28;61963;-78
2022/12/31 07:58:20;;;;;;;;;5.50;2.50;;;;;;;;5102916;27;61793;-77
2022/12/31 08:00:45;;;;;;;;;1.50;1.50;;;;;;;;5104875;27;61761;-78
2022/12/31 08:03:31;;;;;;;;;2.50;1.00;;;;;;;;5106210;27;61672;-78
2022/12/31 08:06:05;;;;;;;;;3.00;1.00;;;;;;;;5101156;27;62960;-77
2022/12/31 08:08:39;;;;;;;;;2.33;2.33;;;;;;;;5105201;27;61738;-78
2022/12/31 08:11:07;;;;;;;;;1.50;1.50;;;;;;;;5106069;27;61967;-75
2022/12/31 08:13:33;;;;;;;;;2.50;1.00;;;;;;;;5104165;27;61765;-78
2022/12/31 08:15:58;;;;;;;;;1.50;1.50;;;;;;;;5103853;27;63719;-78
2022/12/31 08:18:24;;;;;;;;;1.00;1.00;;;;;;;;5104603;27;61740;-77
2022/12/31 08:20:55;;;;;;;;;2.33;1.00;;;;;;;;5105838;27;61674;-78
2022/12/31 08:23:24;;;;;;;;;2.00;1.75;;;;;;;;5106107;27;62140;-78
2022/12/31 08:25:55;;;;;;;;;1.00;0.00;;;;;;;;5105132;27;61829;-78
2022/12/31 08:28:24;;;;;;;;;3.00;1.00;;;;;;;;5103633;27;61772;-77
2022/12/31 08:30:49;;;;;;;;;1.00;1.00;;;;;;;;5105728;27;61829;-78
2022/12/31 08:33:33;;;;;;;;;5.25;1.75;;;;;;;;5104422;27;62179;-78
2022/12/31 08:36:09;;;;;;;;;2.00;2.00;;;;;;;;5103304;27;64102;-78
2022/12/31 08:38:53;;;;;;;;;2.33;1.00;;;;;;;;5104478;27;61844;-78
2022/12/31 08:41:27;;;;;;;;;2.00;1.00;;;;;;;;5105408;27;61900;-78
2022/12/31 08:44:10;;;;;;;;;2.25;2.25;;;;;;;;5105505;27;61887;-78
2022/12/31 08:46:45;;;;;;;;;1.50;1.50;;;;;;;;5104888;27;61883;-77
2022/12/31 08:49:13;;;;;;;;;3.33;1.00;;;;;;;;5103916;27;61912;-77
2022/12/31 08:51:39;;;;;;;;;1.00;1.00;;;;;;;;5105310;27;61979;-78
2022/12/31 08:54:04;;;;;;;;;1.00;1.00;;;;;;;;5105583;27;62149;-77
2022/12/31 08:56:42;;;;;;;;;4.00;2.00;;;;;;;;5104306;27;61891;-78
2022/12/31 08:59:13;;;;;;;;;4.75;1.00;;;;;;;;5105147;27;61883;-78
2022/12/31 09:01:49;;;;;;;;;2.00;2.00;;;;;;;;5105276;27;62192;-78
2022/12/31 09:04:19;;;;;;;;;1.00;1.00;;;;;;;;5105293;27;62065;-78
2022/12/31 09:06:50;;;;;;;;;2.00;2.00;;;;;;;;5103033;27;63663;-78
2022/12/31 09:09:23;;;;;;;;;2.75;2.25;;;;;;;;5105062;27;61652;-78
2022/12/31 09:12:07;;;;;;;;;2.25;2.25;;;;;;;;5104974;27;61790;-77
2022/12/31 09:14:40;;;;;;;;;1.75;1.75;;;;;;;;5104957;27;62093;-78
2022/12/31 09:17:11;;;;;;;;;5.00;2.00;;;;;;;;5104352;27;62905;-78
2022/12/31 09:19:36;;;;;;;;;3.50;1.50;;;;;;;;5104680;27;62104;-78
2022/12/31 09:22:02;;;;;;;;;4.00;1.75;;;;;;;;5103469;27;61838;-78
2022/12/31 09:24:27;;;;;;;;;2.00;2.00;;;;;;;;5104426;27;62050;-77
2022/12/31 09:26:53;;;;;;;;;1.50;1.50;;;;;;;;5104299;27;61848;-78
2022/12/31 09:29:27;;;;;;;;;1.00;1.00;;;;;;;;5104600;27;61910;-78
2022/12/31 09:32:04;;;;;;;;;4.00;2.00;;;;;;;;5105173;27;61891;-78
2022/12/31 09:34:34;;;;;;;;;3.50;3.00;;;;;;;;5103335;27;61827;-78
2022/12/31 09:37:05;;;;;;;;;1.25;1.25;;;;;;;;5103895;27;61885;-78
2022/12/31 09:39:45;;;;;;;;;3.25;2.00;;;;;;;;5104321;27;62050;-78
2022/12/31 09:42:13;;;;;;;;;2.50;2.00;;;;;;;;5104697;27;61760;-78
2022/12/31 09:44:38;;;;;;;;;2.00;1.25;;;;;;;;5103161;27;61911;-78
2022/12/31 09:47:18;;;;;;;;;1.00;1.00;;;;;;;;5101572;27;62696;-78
2022/12/31 09:49:47;;;;;;;;;3.00;3.00;;;;;;;;5102672;27;61893;-75
2022/12/31 09:52:23;;;;;;;;;2.00;2.00;;;;;;;;5103155;27;61736;-75
2022/12/31 09:54:53;;;;;;;;;1.67;1.00;;;;;;;;5102872;27;62104;-78
2022/12/31 09:57:25;;;;;;;;;1.00;1.00;;;;;;;;5102264;27;63674;-78
2022/12/31 09:59:59;;;;;;;;;5.67;2.00;;;;;;;;5102628;27;62065;-78
2022/12/31 10:02:45;;;;;;;;;1.50;1.50;;;;;;;;5104252;27;61702;-77
2022/12/31 10:05:25;;;;;;;;;3.25;2.75;;;;;;;;5104522;27;61729;-78
2022/12/31 10:08:06;;;;;;;;;1.67;1.00;;;;;;;;5101078;27;64017;-77
2022/12/31 10:10:45;;;;;;;;;7.25;4.00;;;;;;;;5104371;27;61819;-78
2022/12/31 10:13:26;;;;;;;;;2.67;2.00;;;;;;;;5104034;27;61628;-78
2022/12/31 10:16:09;;;;;;;;;4.00;2.00;;;;;;;;5103996;27;61995;-78
2022/12/31 10:18:53;;;;;;;;;2.00;2.00;;;;;;;;5102138;27;63807;-78
2022/12/31 10:21:21;;;;;;;;;1.00;1.00;;;;;;;;5104045;27;61810;-78
2022/12/31 10:23:56;;;;;;;;;2.50;2.50;;;;;;;;5103818;27;61990;-78
2022/12/31 10:26:36;;;;;;;;;4.00;2.00;;;;;;;;5102422;27;62174;-78
2022/12/31 10:29:01;;;;;;;;;2.00;2.00;;;;;;;;5102915;27;62731;-78
2022/12/31 10:31:46;;;;;;;;;1.00;1.00;;;;;;;;5103790;27;61636;-78
2022/12/31 10:34:13;;;;;;;;;1.00;1.00;;;;;;;;5103933;27;61628;-78
2022/12/31 10:36:47;;;;;;;;;1.33;1.00;;;;;;;;5103745;27;62157;-77
2022/12/31 10:39:37;;;;;;;;;1.00;1.00;;;;;;;;5102976;27;62115;-78
2022/12/31 10:42:14;;;;;;;;;2.00;2.00;;;;;;;;5102238;27;62061;-78
2022/12/31 10:44:45;;;;;;;;;3.67;2.00;;;;;;;;5103473;27;61682;-78
2022/12/31 10:47:49;;;;;;;;;2.67;1.67;;;;;;;;5102316;27;61949;-78
2022/12/31 10:50:40;;;;;;;;;4.00;2.00;;;;;;;;5079567;28;62641;-78
2022/12/31 10:53:24;;;;;;;;;2.67;1.67;;;;;;;;5063255;28;61973;-77
2022/12/31 10:56:04;;;;;;;;;5.67;2.00;;;;;;;;5063333;28;62090;-77
2022/12/31 10:58:44;;;;;;;;;3.00;1.00;;;;;;;;5080277;28;62009;-77
2022/12/31 11:01:13;;;;;;;;;2.00;2.00;;;;;;;;5062718;28;65037;-77
2022/12/31 11:03:41;;;;;;;;;2.00;2.00;;;;;;;;5063183;28;62148;-77
2022/12/31 11:06:09;;;;;;;;;4.00;3.00;;;;;;;;5080239;28;61707;-77
2022/12/31 11:08:40;;;;;;;;;2.00;2.00;;;;;;;;5079674;28;61927;-78
2022/12/31 11:11:05;;;;;;;;;3.67;2.67;;;;;;;;5079855;28;62873;-77
2022/12/31 11:13:50;;;;;;;;;3.67;2.67;;;;;;;;5079986;28;62286;-77
2022/12/31 11:16:19;;;;;;;;;4.00;2.00;;;;;;;;5079493;28;62210;-77
2022/12/31 11:18:47;;;;;;;;;2.00;2.00;;;;;;;;5063170;28;62098;-77
2022/12/31 11:21:20;;;;;;;;;1.00;1.00;;;;;;;;5092341;27;63183;-77
2022/12/31 11:23:54;;;;;;;;;3.33;2.00;;;;;;;;5103246;27;61671;-77
2022/12/31 11:26:37;;;;;;;;;2.00;2.00;;;;;;;;5102893;27;62015;-77
2022/12/31 11:29:03;;;;;;;;;3.00;2.00;;;;;;;;5101627;27;61981;-77
2022/12/31 11:31:37;;;;;;;;;4.00;2.67;;;;;;;;5102342;27;61794;-77
2022/12/31 11:34:15;;;;;;;;;4.00;2.33;;;;;;;;5101494;27;61928;-77
2022/12/31 11:37:03;;;;;;;;;2.00;2.00;;;;;;;;5102392;27;61823;-78
2022/12/31 11:39:28;;;;;;;;;2.67;2.00;;;;;;;;5102772;27;62281;-77
2022/12/31 11:41:59;;;;;;;;;1.67;1.67;;;;;;;;5102162;27;61946;-77
2022/12/31 11:44:30;;;;;;;;;1.67;1.00;;;;;;;;5101017;27;61775;-77
2022/12/31 11:47:15;;;;;;;;;2.00;2.00;;;;;;;;5102647;27;62040;-77
2022/12/31 11:49:43;;;;;;;;;3.00;1.00;;;;;;;;5101077;27;62110;-77
2022/12/31 11:52:29;;;;;;;;;2.00;1.00;;;;;;;;5102049;27;61874;-77
2022/12/31 11:55:17;;;;;;;;;1.67;1.67;;;;;;;;5102132;27;62181;-77
2022/12/31 11:57:47;;;;;;;;;3.67;2.33;;;;;;;;5095302;27;62006;-77
2022/12/31 12:00:17;;;;;;;;;2.67;2.67;;;;;;;;5102540;27;61816;-77
2022/12/31 12:02:45;;;;;;;;;5.67;2.00;;;;;;;;5100663;27;63842;-77
2022/12/31 12:05:12;;;;;;;;;1.67;1.67;;;;;;;;5101077;27;61864;-77
2022/12/31 12:07:38;;;;;;;;;2.00;2.00;;;;;;;;5101535;27;61675;-77
2022/12/31 12:10:13;;;;;;;;;5.33;2.00;;;;;;;;5103640;27;61891;-77
2022/12/31 12:12:40;;;;;;;;;3.00;1.67;;;;;;;;5105548;27;62598;-77
2022/12/31 12:15:06;;;;;;;;;3.00;1.00;;;;;;;;5105387;27;61744;-77
2022/12/31 12:17:33;;;;;;;;;3.33;2.33;;;;;;;;5106035;27;61838;-77
2022/12/31 12:20:00;;;;;;;;;1.33;1.00;;;;;;;;5104243;27;62206;-77
2022/12/31 12:22:26;;;;;;;;;2.67;2.00;;;;;;;;5103882;27;64587;-77
2022/12/31 12:25:12;;;;;;;;;3.67;2.00;;;;;;;;5105462;27;61758;-77
2022/12/31 12:27:37;;;;;;;;;3.33;1.00;;;;;;;;5101203;27;62067;-77
2022/12/31 12:30:18;;;;;;;;;2.67;1.00;;;;;;;;5105486;27;62039;-77
2022/12/31 12:32:53;;;;;;;;;2.00;2.00;;;;;;;;5103603;27;64831;-77
2022/12/31 12:35:23;;;;;;;;;1.00;1.00;;;;;;;;5105621;27;62133;-77
2022/12/31 12:37:57;;;;;;;;;3.33;2.00;;;;;;;;5105554;27;61670;-77
2022/12/31 12:40:22;;;;;;;;;3.67;2.00;;;;;;;;5106001;27;62207;-77
2022/12/31 12:42:49;;;;;;;;;1.00;1.00;;;;;;;;5104894;27;61763;-77
2022/12/31 12:45:24;;;;;;;;;3.67;2.00;;;;;;;;5103973;27;61723;-77
2022/12/31 12:47:58;;;;;;;;;4.00;2.67;;;;;;;;5104860;27;61692;-77
2022/12/31 12:50:25;;;;;;;;;2.33;1.00;;;;;;;;5105302;27;61762;-77
2022/12/31 12:52:53;;;;;;;;;2.00;1.00;;;;;;;;5104599;27;62516;-77
2022/12/31 12:55:37;;;;;;;;;4.00;1.67;;;;;;;;5105268;27;61734;-77
2022/12/31 12:58:10;;;;;;;;;3.67;2.00;;;;;;;;5103984;27;61930;-77
2022/12/31 13:00:54;;;;;;;;;1.33;1.33;;;;;;;;5105459;27;61653;-77
2022/12/31 13:03:38;;;;;;;;;3.00;2.00;;;;;;;;5104534;27;61766;-77
2022/12/31 13:06:22;;;;;;;;;2.00;2.00;;;;;;;;5105012;27;61650;-77
2022/12/31 13:08:47;;;;;;;;;1.67;1.67;;;;;;;;5104291;27;62090;-77
2022/12/31 13:11:31;;;;;;;;;4.00;2.00;;;;;;;;5103918;27;61782;-78
2022/12/31 13:14:22;;;;;;;;;3.33;2.00;;;;;;;;5103937;27;61868;-77
2022/12/31 13:16:57;;;;;;;;;2.00;2.00;;;;;;;;5103071;27;61679;-77
2022/12/31 13:19:40;;;;;;;;;1.67;1.00;;;;;;;;5103525;27;61824;-77
2022/12/31 13:22:24;;;;;;;;;3.00;1.00;;;;;;;;5103748;27;61938;-77
2022/12/31 13:24:52;;;;;;;;;1.33;1.00;;;;;;;;5104223;27;62030;-77
2022/12/31 13:27:24;;;;;;;;;2.00;2.00;;;;;;;;5103321;27;61830;-77
2022/12/31 13:29:50;;;;;;;;;4.33;2.00;;;;;;;;5103260;27;61755;-77
2022/12/31 13:32:17;;;;;;;;;3.00;3.00;;;;;;;;5104699;27;61801;-77
2022/12/31 13:34:45;;;;;;;;;2.00;2.00;;;;;;;;5102813;27;62851;-77
2022/12/31 13:37:30;;;;;;;;;2.00;2.00;;;;;;;;5104372;27;62030;-77
2022/12/31 13:39:58;;;;;;;;;3.00;2.00;;;;;;;;5104392;27;61869;-77
2022/12/31 13:42:27;;;;;;;;;4.00;2.00;;;;;;;;5104879;27;61704;-77
2022/12/31 13:44:55;;;;;;;;;1.00;1.00;;;;;;;;5102283;27;63797;-77
2022/12/31 13:47:23;;;;;;;;;2.00;2.00;;;;;;;;5104151;27;61860;-77
2022/12/31 13:49:51;;;;;;;;;2.00;2.00;;;;;;;;5104375;27;61683;-77
2022/12/31 13:52:31;;;;;;;;;1.33;1.00;;;;;;;;5104499;27;62076;-77
2022/12/31 13:55:17;;;;;;;;;2.33;2.33;;;;;;;;5103627;27;61706;-77
2022/12/31 13:57:51;;;;;;;;;3.00;2.00;;;;;;;;5103741;27;61892;-77
2022/12/31 14:00:28;;;;;;;;;2.00;2.00;;;;;;;;5103577;27;62021;-77
2022/12/31 14:03:03;;;;;;;;;2.50;2.50;;;;;;;;5104534;27;61928;-77
2022/12/31 14:05:35;;;;;;;;;5.33;3.00;;;;;;;;5103632;27;61844;-77
2022/12/31 14:08:01;;;;;;;;;4.00;1.33;;;;;;;;5102908;27;62000;-78
2022/12/31 14:10:35;;;;;;;;;4.67;2.00;;;;;;;;5104174;27;61845;-77
2022/12/31 14:13:24;;;;;;;;;1.67;1.67;;;;;;;;5104234;27;61994;-77
2022/12/31 14:16:07;;;;;;;;;3.67;2.00;;;;;;;;5095398;27;62615;-77
2022/12/31 14:18:52;;;;;;;;;4.67;2.00;;;;;;;;5104128;27;61760;-77
2022/12/31 14:21:22;;;;;;;;;5.67;2.00;;;;;;;;5102701;27;61903;-77
2022/12/31 14:23:53;;;;;;;;;1.00;1.00;;;;;;;;5104525;27;61823;-77
2022/12/31 14:26:24;;;;;;;;;2.67;1.67;;;;;;;;5103152;27;61930;-77
2022/12/31 14:28:56;;;;;;;;;3.33;2.00;;;;;;;;5103327;27;62087;-77
2022/12/31 14:31:21;;;;;;;;;2.67;2.67;;;;;;;;5104036;27;61659;-77
2022/12/31 14:33:52;;;;;;;;;5.00;3.00;;;;;;;;5102194;27;61868;-77
2022/12/31 14:36:20;;;;;;;;;1.00;1.00;;;;;;;;5102939;27;61728;-77
2022/12/31 14:38:53;;;;;;;;;4.00;4.00;;;;;;;;5103660;27;61682;-77
2022/12/31 14:41:25;;;;;;;;;2.00;2.00;;;;;;;;5103756;27;61702;-77
2022/12/31 14:44:09;;;;;;;;;4.33;4.00;;;;;;;;5101869;27;61887;-77
2022/12/31 14:46:55;;;;;;;;;2.67;2.00;;;;;;;;5101696;27;65132;-77
2022/12/31 14:49:20;;;;;;;;;2.00;2.00;;;;;;;;5099010;27;61851;-77
2022/12/31 14:51:45;;;;;;;;;4.50;3.00;;;;;;;;5103514;27;62041;-77
2022/12/31 14:54:27;;;;;;;;;1.50;1.50;;;;;;;;5102397;27;62379;-77
2022/12/31 14:56:52;;;;;;;;;1.00;1.00;;;;;;;;5102437;27;61757;-77
2022/12/31 14:59:28;;;;;;;;;4.00;2.67;;;;;;;;5102821;27;61933;-78
2022/12/31 15:01:54;;;;;;;;;3.00;0.00;;;;;;;;5102275;27;62119;-77
2022/12/31 15:04:38;;;;;;;;;2.50;2.25;;;;;;;;5103264;27;61868;-77
2022/12/31 15:07:06;;;;;;;;;4.00;2.00;;;;;;;;5101748;27;61708;-77
2022/12/31 15:09:58;;;;;;;;;2.00;2.00;;;;;;;;5103398;27;61730;-77
2022/12/31 15:12:46;;;;;;;;;3.33;1.67;;;;;;;;5102939;27;61912;-77